createdAt,value
2023-03-26T00:01:24.366Z,55.50
2023-03-26T00:03:58.095Z,55.30
2023-03-26T00:06:36.742Z,55.30
2023-03-26T00:09:05.565Z,55.30
2023-03-26T00:11:32.408Z,55.20
2023-03-26T00:13:59.341Z,55.30
2023-03-26T00:16:29.039Z,55.40
2023-03-26T00:18:57.789Z,55.30
2023-03-26T00:21:27.846Z,55.30
2023-03-26T00:23:58.612Z,55.40
2023-03-26T00:26:26.866Z,55.30
2023-03-26T00:28:54.761Z,55.40
2023-03-26T00:31:22.168Z,55.40
2023-03-26T00:33:55.618Z,55.40
2023-03-26T00:36:25.841Z,55.50
2023-03-26T00:38:53.995Z,55.50
2023-03-26T00:41:26.476Z,55.50
2023-03-26T00:43:56.847Z,55.50
2023-03-26T00:46:25.736Z,55.60
2023-03-26T00:48:52.984Z,55.70
2023-03-26T00:51:20.845Z,55.70
2023-03-26T00:53:49.486Z,55.90
2023-03-26T00:56:17.459Z,55.90
2023-03-26T00:58:46.132Z,56.00
2023-03-26T01:01:16.585Z,56.20
2023-03-26T01:03:57.143Z,56.30
2023-03-26T01:06:36.248Z,56.50
2023-03-26T01:09:19.017Z,56.50
2023-03-26T01:11:48.835Z,56.50
2023-03-26T01:14:19.807Z,56.60
2023-03-26T01:16:52.142Z,56.70
2023-03-26T01:19:38.486Z,56.70
2023-03-26T01:22:12.042Z,56.70
2023-03-26T01:24:40.564Z,56.70
2023-03-26T01:27:39.021Z,56.60
2023-03-26T01:30:24.311Z,56.70
2023-03-26T01:32:55.736Z,56.70
2023-03-26T01:35:41.579Z,56.80
2023-03-26T01:38:29.753Z,56.90
2023-03-26T01:41:10.916Z,56.90
2023-03-26T01:43:51.357Z,56.90
2023-03-26T01:46:21.000Z,56.90
2023-03-26T01:48:48.886Z,57.00
2023-03-26T01:51:30.638Z,57.00
2023-03-26T01:53:58.505Z,57.00
2023-03-26T01:56:35.617Z,56.90
2023-03-26T01:59:37.701Z,56.80
2023-03-26T02:02:15.539Z,56.80
2023-03-26T02:04:53.016Z,56.90
2023-03-26T02:07:29.767Z,57.00
2023-03-26T02:10:00.711Z,56.90
2023-03-26T02:12:29.187Z,56.90
2023-03-26T02:14:56.020Z,56.90
2023-03-26T02:17:24.422Z,56.90
2023-03-26T02:19:51.611Z,57.10
2023-03-26T02:22:18.453Z,57.00
2023-03-26T02:24:45.885Z,57.10
2023-03-26T02:27:13.589Z,57.10
2023-03-26T02:29:41.428Z,56.90
2023-03-26T02:32:13.218Z,56.90
2023-03-26T02:34:41.162Z,56.90
2023-03-26T02:37:08.693Z,57.00
2023-03-26T02:39:36.388Z,56.90
2023-03-26T02:42:03.354Z,56.80
2023-03-26T02:44:30.465Z,56.60
2023-03-26T02:46:57.319Z,56.50
2023-03-26T02:49:24.169Z,56.50
2023-03-26T02:51:51.144Z,56.20
2023-03-26T02:54:18.413Z,55.90
2023-03-26T02:56:45.413Z,55.70
2023-03-26T02:59:12.356Z,55.80
2023-03-26T03:01:42.990Z,55.90
2023-03-26T03:04:13.310Z,56.00
2023-03-26T03:06:40.577Z,55.60
2023-03-26T03:09:11.262Z,55.60
2023-03-26T03:11:40.106Z,55.40
2023-03-26T03:14:07.397Z,55.40
2023-03-26T03:16:34.338Z,55.30
2023-03-26T03:19:01.967Z,55.20
2023-03-26T03:21:29.695Z,55.30
2023-03-26T03:23:59.983Z,55.20
2023-03-26T03:26:29.742Z,55.20
2023-03-26T03:28:57.925Z,55.00
2023-03-26T03:31:26.544Z,54.90
2023-03-26T03:33:53.682Z,54.70
2023-03-26T03:36:22.938Z,54.60
2023-03-26T03:38:50.953Z,55.20
2023-03-26T03:41:18.815Z,54.30
2023-03-26T03:43:46.273Z,54.30
2023-03-26T03:46:13.505Z,54.40
2023-03-26T03:48:41.149Z,54.30
2023-03-26T03:51:08.068Z,54.20
2023-03-26T03:53:37.390Z,54.20
2023-03-26T03:56:10.412Z,53.90
2023-03-26T03:58:37.698Z,53.90
2023-03-26T04:01:04.695Z,53.90
2023-03-26T04:03:33.083Z,54.00
2023-03-26T04:06:01.594Z,53.90
2023-03-26T04:08:28.509Z,53.80
2023-03-26T04:10:55.463Z,53.70
2023-03-26T04:13:22.538Z,53.50
2023-03-26T04:15:49.430Z,53.40
2023-03-26T04:18:16.323Z,53.40
2023-03-26T04:20:47.457Z,53.20
2023-03-26T04:23:18.558Z,53.40
2023-03-26T04:25:50.076Z,53.50
2023-03-26T04:28:30.564Z,53.60
2023-03-26T04:31:03.761Z,53.70
2023-03-26T04:33:32.892Z,53.60
2023-03-26T04:36:03.725Z,53.50
2023-03-26T04:38:33.931Z,53.50
2023-03-26T04:41:03.357Z,53.50
2023-03-26T04:43:35.584Z,53.40
2023-03-26T04:46:03.452Z,53.30
2023-03-26T04:48:30.780Z,53.20
2023-03-26T04:50:58.421Z,53.10
2023-03-26T04:53:25.497Z,53.20
2023-03-26T04:55:56.048Z,53.20
2023-03-26T04:58:30.204Z,53.20
2023-03-26T05:00:57.506Z,53.30
2023-03-26T05:03:25.777Z,53.20
2023-03-26T05:05:53.078Z,53.30
2023-03-26T05:08:20.090Z,53.40
2023-03-26T05:10:46.923Z,53.50
2023-03-26T05:13:14.008Z,53.50
2023-03-26T05:15:40.886Z,53.40
2023-03-26T05:18:08.850Z,53.40
2023-03-26T05:20:36.094Z,53.50
2023-03-26T05:23:03.008Z,53.60
2023-03-26T05:25:30.132Z,53.40
2023-03-26T05:27:56.988Z,53.40
2023-03-26T05:30:23.885Z,53.30
2023-03-26T05:32:52.008Z,53.20
2023-03-26T05:35:19.714Z,53.30
2023-03-26T05:37:48.012Z,53.10
2023-03-26T05:40:17.119Z,52.80
2023-03-26T05:42:45.607Z,53.00
2023-03-26T05:45:14.415Z,52.90
2023-03-26T05:47:41.500Z,52.90
2023-03-26T05:50:09.128Z,52.80
2023-03-26T05:52:36.112Z,52.80
2023-03-26T05:55:03.888Z,52.80
2023-03-26T05:57:31.962Z,52.70
2023-03-26T05:59:58.845Z,52.50
2023-03-26T06:02:25.715Z,52.40
2023-03-26T06:04:52.777Z,52.50
2023-03-26T06:07:20.090Z,52.70
2023-03-26T06:09:47.088Z,52.50
2023-03-26T06:12:14.739Z,52.40
2023-03-26T06:14:45.865Z,52.40
2023-03-26T06:17:12.897Z,52.60
2023-03-26T06:19:40.136Z,52.30
2023-03-26T06:22:07.014Z,52.40
2023-03-26T06:24:34.889Z,52.60
2023-03-26T06:27:01.834Z,52.50
2023-03-26T06:29:28.774Z,52.40
2023-03-26T06:31:58.127Z,52.20
2023-03-26T06:34:28.446Z,52.30
2023-03-26T06:36:55.496Z,52.50
2023-03-26T06:39:22.485Z,52.40
2023-03-26T06:41:49.412Z,52.30
2023-03-26T06:44:16.382Z,52.40
2023-03-26T06:46:43.280Z,52.40
2023-03-26T06:49:10.399Z,52.50
2023-03-26T06:51:39.320Z,52.60
2023-03-26T06:54:06.451Z,52.60
2023-03-26T06:56:33.481Z,52.80
2023-03-26T06:59:00.336Z,52.70
2023-03-26T07:01:27.267Z,52.60
2023-03-26T07:03:54.366Z,52.60
2023-03-26T07:06:21.231Z,52.50
2023-03-26T07:08:48.249Z,52.50
2023-03-26T07:11:16.793Z,52.80
2023-03-26T07:13:45.049Z,52.40
2023-03-26T07:16:12.015Z,52.60
2023-03-26T07:18:38.953Z,52.70
2023-03-26T07:21:06.302Z,52.90
2023-03-26T07:23:33.465Z,52.60
2023-03-26T07:26:10.603Z,52.60
2023-03-26T07:29:04.546Z,52.40
2023-03-26T07:32:03.536Z,52.50
2023-03-26T07:34:50.914Z,52.80
2023-03-26T07:37:33.229Z,52.50
2023-03-26T07:40:11.672Z,52.20
2023-03-26T07:43:16.527Z,51.70
2023-03-26T07:45:44.965Z,51.90
2023-03-26T07:48:21.331Z,52.10
2023-03-26T07:50:48.679Z,52.20
2023-03-26T07:53:16.134Z,53.00
2023-03-26T07:56:03.236Z,52.20
2023-03-26T07:58:53.843Z,52.40
2023-03-26T08:01:52.916Z,52.00
2023-03-26T08:04:37.380Z,51.80
2023-03-26T08:07:31.057Z,51.80
2023-03-26T08:10:07.809Z,51.80
2023-03-26T08:13:10.903Z,51.70
2023-03-26T08:16:08.992Z,51.40
2023-03-26T08:18:44.831Z,51.30
2023-03-26T08:21:33.934Z,51.00
2023-03-26T08:24:27.967Z,51.00
2023-03-26T08:27:19.503Z,51.50
2023-03-26T08:30:02.315Z,51.40
2023-03-26T08:32:29.737Z,50.80
2023-03-26T08:34:57.679Z,50.30
2023-03-26T08:37:24.630Z,49.80
2023-03-26T08:39:51.619Z,49.50
2023-03-26T08:42:57.763Z,48.90
2023-03-26T08:45:51.437Z,49.30
2023-03-26T08:48:27.283Z,49.00
2023-03-26T08:50:54.243Z,48.30
2023-03-26T08:53:38.943Z,47.50
2023-03-26T08:56:13.000Z,47.70
2023-03-26T08:59:17.287Z,47.20
2023-03-26T09:01:53.406Z,47.50
2023-03-26T09:04:48.760Z,47.40
2023-03-26T09:07:37.311Z,47.30
2023-03-26T09:10:15.980Z,46.60
2023-03-26T09:13:13.647Z,46.70
2023-03-26T09:16:10.139Z,47.00
2023-03-26T09:18:42.980Z,46.70
2023-03-26T09:21:31.712Z,46.60
2023-03-26T09:24:07.144Z,46.90
2023-03-26T09:27:06.427Z,46.90
2023-03-26T09:29:51.757Z,47.10
2023-03-26T09:32:55.077Z,47.20
2023-03-26T09:35:33.875Z,47.10
2023-03-26T09:38:31.423Z,47.50
2023-03-26T09:41:04.938Z,47.60
2023-03-26T09:43:59.344Z,47.60
2023-03-26T09:46:47.142Z,47.70
2023-03-26T09:49:28.416Z,47.60
2023-03-26T09:52:01.544Z,47.40
2023-03-26T09:54:49.378Z,47.00
2023-03-26T09:57:46.628Z,46.70
2023-03-26T10:00:28.501Z,47.00
2023-03-26T10:03:07.354Z,47.20
2023-03-26T10:06:11.752Z,48.00
2023-03-26T10:09:32.361Z,48.10
2023-03-26T10:12:22.394Z,47.80
2023-03-26T10:14:57.835Z,48.40
2023-03-26T10:17:36.971Z,48.00
2023-03-26T10:20:18.430Z,47.10
2023-03-26T10:23:14.252Z,47.20
2023-03-26T10:25:53.116Z,47.40
2023-03-26T10:28:32.055Z,47.10
2023-03-26T10:31:01.864Z,46.90
2023-03-26T10:33:47.183Z,46.50
2023-03-26T10:36:29.899Z,46.30
2023-03-26T10:39:37.721Z,45.70
2023-03-26T10:42:41.830Z,45.50
2023-03-26T10:45:14.895Z,45.40
2023-03-26T10:48:08.821Z,45.10
2023-03-26T10:51:02.727Z,45.50
2023-03-26T10:53:58.528Z,44.20
2023-03-26T10:56:32.430Z,43.50
2023-03-26T10:59:03.646Z,43.80
2023-03-26T11:01:49.007Z,43.80
2023-03-26T11:04:20.943Z,43.60
2023-03-26T11:07:24.854Z,43.90
2023-03-26T11:10:02.378Z,43.50
2023-03-26T11:13:08.012Z,43.80
2023-03-26T11:15:50.795Z,43.80
2023-03-26T11:18:23.404Z,43.00
2023-03-26T11:21:18.135Z,43.30
2023-03-26T11:24:07.145Z,43.00
2023-03-26T11:26:56.811Z,43.70
2023-03-26T11:29:42.041Z,43.30
2023-03-26T11:32:16.769Z,43.40
2023-03-26T11:35:08.384Z,42.80
2023-03-26T11:37:52.424Z,43.10
2023-03-26T11:40:42.701Z,43.10
2023-03-26T11:43:13.386Z,42.50
2023-03-26T11:45:44.980Z,42.80
2023-03-26T11:48:20.717Z,43.10
2023-03-26T11:50:57.407Z,41.50
2023-03-26T11:53:29.450Z,40.90
2023-03-26T11:56:03.578Z,41.90
2023-03-26T11:58:31.286Z,41.20
2023-03-26T12:00:59.163Z,41.10
2023-03-26T12:03:30.356Z,41.10
2023-03-26T12:05:59.689Z,41.40
2023-03-26T12:08:38.837Z,41.50
2023-03-26T12:11:12.306Z,42.10
2023-03-26T12:13:42.001Z,42.50
2023-03-26T12:16:17.999Z,42.60
2023-03-26T12:18:47.599Z,43.20
2023-03-26T12:21:18.381Z,42.50
2023-03-26T12:23:51.160Z,43.00
2023-03-26T12:26:20.817Z,43.80
2023-03-26T12:28:50.266Z,43.40
2023-03-26T12:31:19.657Z,44.00
2023-03-26T12:34:13.480Z,43.80
2023-03-26T12:36:40.706Z,43.70
2023-03-26T12:40:08.087Z,43.60
2023-03-26T12:44:55.536Z,43.80
2023-03-26T12:45:43.357Z,43.80
2023-03-26T12:48:14.091Z,44.00
2023-03-26T12:50:57.385Z,44.60
2023-03-26T12:54:03.284Z,42.90
2023-03-26T12:57:12.100Z,43.60
2023-03-26T12:59:55.859Z,42.50
2023-03-26T13:02:41.302Z,41.50
2023-03-26T13:05:35.089Z,41.80
2023-03-26T13:08:35.315Z,41.20
2023-03-26T13:11:18.076Z,40.90
2023-03-26T13:14:07.674Z,40.10
2023-03-26T13:17:01.307Z,40.00
2023-03-26T13:19:58.194Z,40.30
2023-03-26T13:22:37.859Z,41.10
2023-03-26T13:25:10.982Z,41.40
2023-03-26T13:27:52.848Z,41.30
2023-03-26T13:30:28.301Z,41.20
2023-03-26T13:33:03.808Z,41.40
2023-03-26T13:36:22.480Z,41.40
2023-03-26T13:39:14.752Z,41.60
2023-03-26T13:41:47.454Z,41.40
2023-03-26T13:44:38.484Z,41.60
2023-03-26T13:47:13.467Z,42.30
2023-03-26T13:49:59.241Z,42.40
2023-03-26T13:52:43.004Z,42.10
2023-03-26T13:55:47.584Z,41.90
2023-03-26T13:58:21.425Z,41.80
2023-03-26T14:01:09.764Z,42.30
2023-03-26T14:03:42.938Z,42.50
2023-03-26T14:06:43.544Z,42.50
2023-03-26T14:09:32.092Z,41.50
2023-03-26T14:12:22.048Z,41.50
2023-03-26T14:14:59.557Z,41.40
2023-03-26T14:17:32.177Z,41.00
2023-03-26T14:20:17.594Z,40.50
2023-03-26T14:23:15.225Z,40.60
2023-03-26T14:26:01.244Z,40.50
2023-03-26T14:28:58.846Z,40.10
2023-03-26T14:31:46.584Z,40.50
2023-03-26T14:34:18.970Z,40.60
2023-03-26T14:37:06.204Z,39.80
2023-03-26T14:39:58.359Z,40.50
2023-03-26T14:42:41.039Z,40.20
2023-03-26T14:45:07.870Z,39.90
2023-03-26T14:47:49.036Z,39.70
2023-03-26T14:50:46.842Z,39.80
2023-03-26T14:53:26.958Z,39.90
2023-03-26T14:56:21.988Z,39.70
2023-03-26T14:59:24.395Z,39.90
2023-03-26T15:02:22.134Z,39.60
2023-03-26T15:05:26.509Z,39.50
2023-03-26T15:08:24.331Z,39.40
2023-03-26T15:11:24.913Z,39.70
2023-03-26T15:14:26.871Z,40.00
2023-03-26T15:17:24.309Z,40.00
2023-03-26T15:20:39.246Z,40.10
2023-03-26T15:23:08.768Z,40.70
2023-03-26T15:26:07.854Z,40.90
2023-03-26T15:28:57.051Z,41.30
2023-03-26T15:31:41.072Z,41.30
2023-03-26T15:34:27.575Z,41.90
2023-03-26T15:37:15.387Z,42.30
2023-03-26T15:39:59.559Z,42.10
2023-03-26T15:43:02.591Z,42.90
2023-03-26T15:45:48.383Z,42.60
2023-03-26T15:48:39.259Z,43.00
2023-03-26T15:51:29.632Z,43.40
2023-03-26T15:53:59.468Z,43.70
2023-03-26T15:57:08.881Z,44.40
2023-03-26T15:59:58.195Z,44.30
2023-03-26T16:02:41.599Z,44.80
2023-03-26T16:05:29.661Z,45.40
2023-03-26T16:08:03.056Z,45.60
2023-03-26T16:10:58.915Z,46.20
2023-03-26T16:14:01.113Z,46.00
2023-03-26T16:16:49.600Z,46.20
2023-03-26T16:19:19.604Z,46.60
2023-03-26T16:21:55.199Z,47.10
2023-03-26T16:24:32.416Z,47.30
2023-03-26T16:27:08.183Z,47.60
2023-03-26T16:30:00.971Z,47.60
2023-03-26T16:32:29.944Z,47.80
2023-03-26T16:35:00.400Z,48.50
2023-03-26T16:37:35.685Z,48.90
2023-03-26T16:40:20.955Z,48.90
2023-03-26T16:42:48.152Z,49.30
2023-03-26T16:45:24.769Z,49.60
2023-03-26T16:48:06.936Z,49.60
2023-03-26T16:50:50.203Z,49.80
2023-03-26T16:53:33.186Z,50.00
2023-03-26T16:56:23.532Z,50.50
2023-03-26T16:58:56.322Z,51.20
2023-03-26T17:01:43.173Z,51.10
2023-03-26T17:04:20.581Z,51.50
2023-03-26T17:07:14.067Z,51.60
2023-03-26T17:10:18.189Z,51.50
2023-03-26T17:13:00.969Z,51.40
2023-03-26T17:15:46.212Z,51.30
2023-03-26T17:18:32.224Z,51.40
2023-03-26T17:21:04.465Z,51.70
2023-03-26T17:23:54.607Z,51.30
2023-03-26T17:26:44.324Z,50.90
2023-03-26T17:29:24.405Z,50.90
2023-03-26T17:32:04.686Z,50.90
2023-03-26T17:34:46.620Z,50.90
2023-03-26T17:37:16.923Z,50.80
2023-03-26T17:39:43.829Z,50.90
2023-03-26T17:42:19.056Z,50.90
2023-03-26T17:44:58.798Z,50.70
2023-03-26T17:47:43.709Z,50.60
2023-03-26T17:50:22.843Z,50.40
2023-03-26T17:53:32.066Z,50.10
2023-03-26T17:56:03.790Z,50.00
2023-03-26T17:58:44.861Z,50.00
2023-03-26T18:01:28.869Z,49.50
2023-03-26T18:04:00.589Z,49.80
2023-03-26T18:06:44.681Z,50.60
2023-03-26T18:09:20.577Z,52.00
2023-03-26T18:11:56.123Z,51.60
2023-03-26T18:14:33.591Z,53.00
2023-03-26T18:17:01.677Z,53.70
2023-03-26T18:19:29.237Z,54.30
2023-03-26T18:22:03.621Z,54.90
2023-03-26T18:24:41.329Z,54.60
2023-03-26T18:27:20.792Z,55.00
2023-03-26T18:29:56.755Z,54.50
2023-03-26T18:32:33.781Z,53.70
2023-03-26T18:35:24.124Z,53.70
2023-03-26T18:37:54.273Z,54.30
2023-03-26T18:40:22.760Z,54.40
2023-03-26T18:42:55.995Z,55.10
2023-03-26T18:45:31.599Z,55.60
2023-03-26T18:48:02.166Z,55.70
2023-03-26T18:50:35.928Z,55.80
2023-03-26T18:53:05.694Z,57.00
2023-03-26T18:55:39.395Z,58.10
2023-03-26T18:58:30.692Z,58.60
2023-03-26T19:01:00.627Z,57.40
2023-03-26T19:03:32.207Z,59.30
2023-03-26T19:05:59.607Z,59.80
2023-03-26T19:08:26.548Z,60.30
2023-03-26T19:10:55.460Z,60.60
2023-03-26T19:13:23.416Z,60.70
2023-03-26T19:15:52.187Z,60.20
2023-03-26T19:18:25.554Z,60.60
2023-03-26T19:21:02.128Z,61.20
2023-03-26T19:23:35.684Z,61.70
2023-03-26T19:26:08.040Z,62.40
2023-03-26T19:28:41.905Z,62.40
2023-03-26T19:31:10.337Z,62.70
2023-03-26T19:33:40.150Z,61.50
2023-03-26T19:36:13.382Z,62.60
2023-03-26T19:39:10.588Z,63.00
2023-03-26T19:41:49.992Z,62.70
2023-03-26T19:44:26.384Z,63.40
2023-03-26T19:47:02.399Z,63.60
2023-03-26T19:49:41.376Z,64.40
2023-03-26T19:52:18.332Z,63.90
2023-03-26T19:55:01.356Z,63.90
2023-03-26T19:57:30.451Z,63.80
2023-03-26T19:59:57.579Z,63.50
2023-03-26T20:02:25.544Z,63.90
2023-03-26T20:04:52.793Z,63.30
2023-03-26T20:07:22.135Z,62.90
2023-03-26T20:10:04.246Z,62.60
2023-03-26T20:12:31.235Z,61.90
2023-03-26T20:14:58.067Z,62.20
2023-03-26T20:17:25.114Z,61.90
2023-03-26T20:19:54.302Z,60.90
2023-03-26T20:22:21.214Z,61.00
2023-03-26T20:24:48.166Z,60.00
2023-03-26T20:27:15.164Z,59.70
2023-03-26T20:29:42.670Z,60.10
2023-03-26T20:32:26.461Z,60.50
2023-03-26T20:34:54.185Z,59.00
2023-03-26T20:37:21.506Z,58.80
2023-03-26T20:39:48.393Z,58.90
2023-03-26T20:42:16.230Z,58.90
2023-03-26T20:44:43.660Z,58.40
2023-03-26T20:47:11.667Z,58.10
2023-03-26T20:49:38.967Z,57.50
2023-03-26T20:52:06.124Z,57.80
2023-03-26T20:54:33.257Z,57.60
2023-03-26T20:57:00.211Z,57.80
2023-03-26T20:59:28.247Z,57.90
2023-03-26T21:01:57.810Z,57.50
2023-03-26T21:04:26.240Z,58.70
2023-03-26T21:06:57.686Z,58.60
2023-03-26T21:09:35.768Z,57.80
2023-03-26T21:12:17.017Z,57.90
2023-03-26T21:14:44.362Z,58.40
2023-03-26T21:17:18.037Z,58.10
2023-03-26T21:19:46.049Z,58.60
2023-03-26T21:22:36.175Z,58.70
2023-03-26T21:25:05.984Z,59.70
2023-03-26T21:27:44.525Z,59.40
2023-03-26T21:30:14.574Z,58.50
2023-03-26T21:32:43.173Z,58.70
2023-03-26T21:35:11.530Z,58.80
2023-03-26T21:37:39.257Z,58.90
2023-03-26T21:40:15.020Z,58.70
2023-03-26T21:42:43.032Z,58.10
2023-03-26T21:45:10.749Z,57.40
2023-03-26T21:47:38.002Z,57.40
2023-03-26T21:50:06.140Z,57.10
2023-03-26T21:52:33.283Z,57.40
2023-03-26T21:55:01.541Z,57.90
2023-03-26T21:57:43.524Z,57.90
2023-03-26T22:00:23.619Z,57.50
2023-03-26T22:03:08.423Z,57.10
2023-03-26T22:05:41.796Z,57.50
2023-03-26T22:08:20.307Z,57.20
2023-03-26T22:10:48.039Z,57.50
2023-03-26T22:13:14.903Z,57.50
2023-03-26T22:15:41.921Z,57.90
2023-03-26T22:18:08.830Z,57.80
2023-03-26T22:20:35.813Z,58.10
2023-03-26T22:23:03.297Z,58.50
2023-03-26T22:25:30.203Z,58.70
2023-03-26T22:27:57.629Z,58.90
2023-03-26T22:30:24.664Z,58.50
2023-03-26T22:32:51.878Z,58.60
2023-03-26T22:35:19.268Z,58.40
2023-03-26T22:37:46.285Z,58.40
2023-03-26T22:40:16.233Z,58.50
2023-03-26T22:42:43.094Z,58.10
2023-03-26T22:45:10.817Z,57.80
2023-03-26T22:47:38.281Z,58.00
2023-03-26T22:50:07.442Z,57.20
2023-03-26T22:52:36.492Z,57.40
2023-03-26T22:55:05.387Z,56.70
2023-03-26T22:57:32.326Z,56.60
2023-03-26T23:00:12.035Z,56.70
2023-03-26T23:02:39.935Z,56.90
2023-03-26T23:05:06.960Z,56.70
2023-03-26T23:07:34.050Z,57.00
2023-03-26T23:10:00.871Z,57.00
2023-03-26T23:12:27.731Z,56.70
2023-03-26T23:14:55.426Z,56.70
2023-03-26T23:17:22.426Z,56.50
2023-03-26T23:19:49.489Z,56.30
2023-03-26T23:22:17.387Z,56.10
2023-03-26T23:24:44.704Z,56.70
2023-03-26T23:27:12.113Z,56.60
2023-03-26T23:29:39.014Z,56.60
2023-03-26T23:32:24.391Z,56.30
2023-03-26T23:34:52.786Z,56.80
2023-03-26T23:37:23.319Z,56.40
2023-03-26T23:39:52.242Z,56.60
2023-03-26T23:42:28.406Z,56.00
2023-03-26T23:44:57.309Z,55.80
2023-03-26T23:47:24.526Z,55.70
2023-03-26T23:49:51.552Z,55.60
2023-03-26T23:52:18.846Z,55.70
2023-03-26T23:54:45.808Z,56.80
2023-03-26T23:57:12.924Z,55.60
2023-03-26T23:59:41.626Z,55.40
